Terminal Aerodrome Forecast
Issued by NWS

Home | Current Version | Previous Version | Text Only | Print | Product List | Glossary On
Versions: 1 2 3 4 5 6 7 8 9 10 11 12 13 14 15 16 17 18 19 20
000
FTUS44 KTSA 171700
TAFXNA
TAF
KXNA 171737Z 1718/1818 24012KT P6SM SCT070
     FM172300 VRB06KT P6SM VCTS BKN040CB BKN250 PROB30 1803/1808 3SM
      TSRA BKN025CB
     FM180800 00000KT 3SM BR SCT010
     FM181500 VRB05KT P6SM SCT035=

USA.gov is the U.S. government's official web portal to all federal, state and local government web resources and services.